Terminal Aerodrome Forecast
Issued by NWS

Home | Current Version | Previous Version | Text Only | Print | Product List | Glossary On
Versions: 1 2 3 4 5 6 7 8 9 10 11 12 13 14 15 16
000
FTUS45 KSLC 211723
TAFSGU
TAF
KSGU 211723Z 2118/2218 20006KT P6SM SKC
     FM211900 25010KT P6SM SCT100 SCT200
     FM220400 14009KT P6SM FEW100 SCT200=

USA.gov is the U.S. government's official web portal to all federal, state and local government web resources and services.